createdAt,value
2019-04-22T00:00:45.404Z,11.99
2019-04-22T00:03:18.971Z,11.93
2019-04-22T00:06:10.184Z,11.87
2019-04-22T00:08:44.615Z,11.82
2019-04-22T00:11:19.557Z,11.76
2019-04-22T00:13:51.949Z,11.72
2019-04-22T00:16:27.043Z,11.68
2019-04-22T00:19:11.462Z,11.63
2019-04-22T00:21:25.820Z,11.60
2019-04-22T00:24:01.207Z,11.58
2019-04-22T00:26:29.018Z,11.53
2019-04-22T00:29:21.388Z,11.50
2019-04-22T00:31:53.118Z,11.46
2019-04-22T00:34:24.084Z,11.44
2019-04-22T00:36:54.824Z,11.42
2019-04-22T00:39:37.196Z,11.43
2019-04-22T00:42:03.297Z,11.44
2019-04-22T00:44:40.345Z,11.46
2019-04-22T00:47:10.563Z,11.47
2019-04-22T00:54:48.886Z,11.50
2019-04-22T00:57:15.845Z,11.48
2019-04-22T00:59:54.963Z,11.50
2019-04-22T01:02:24.558Z,11.48
2019-04-22T01:04:55.886Z,11.46
2019-04-22T01:07:23.833Z,11.46
2019-04-22T01:09:58.887Z,11.45
2019-04-22T01:12:31.859Z,11.43
2019-04-22T01:15:00.883Z,11.40
2019-04-22T01:17:34.434Z,11.37
2019-04-22T01:20:45.354Z,11.33
2019-04-22T01:22:34.594Z,11.32
2019-04-22T01:25:12.939Z,11.29
2019-04-22T01:27:34.952Z,11.25
2019-04-22T01:30:03.667Z,11.23
2019-04-22T01:32:30.674Z,11.21
2019-04-22T01:35:08.461Z,11.18
2019-04-22T01:37:46.003Z,11.16
2019-04-22T01:40:24.214Z,11.14
2019-04-22T01:43:05.539Z,11.14
2019-04-22T01:45:45.023Z,11.13
2019-04-22T01:48:02.820Z,11.11
2019-04-22T01:50:32.181Z,11.08
2019-04-22T01:53:24.589Z,11.05
2019-04-22T01:55:49.754Z,11.03
2019-04-22T01:58:27.382Z,10.98
2019-04-22T02:01:16.347Z,10.95
2019-04-22T02:03:35.990Z,10.92
2019-04-22T02:06:07.461Z,10.88
2019-04-22T02:08:45.149Z,10.86
2019-04-22T02:11:08.000Z,10.82
2019-04-22T02:16:30.796Z,10.81
2019-04-22T02:18:44.910Z,10.79
2019-04-22T02:21:13.733Z,10.77
2019-04-22T02:26:34.259Z,10.71
2019-04-22T02:28:52.589Z,10.67
2019-04-22T02:31:35.950Z,10.64
2019-04-22T02:39:05.686Z,10.56
2019-04-22T02:47:08.477Z,10.50
2019-04-22T02:51:33.470Z,10.44
2019-04-22T02:59:14.608Z,10.59
2019-04-22T03:04:18.420Z,10.53
2019-04-22T03:06:43.561Z,10.49
2019-04-22T03:09:25.733Z,10.43
2019-04-22T03:12:11.563Z,10.39
2019-04-22T03:14:30.201Z,10.37
2019-04-22T03:16:57.793Z,10.34
2019-04-22T03:19:46.651Z,10.32
2019-04-22T03:22:11.717Z,10.32
2019-04-22T03:27:08.236Z,10.29
2019-04-22T03:30:45.353Z,10.29
2019-04-22T03:37:52.608Z,10.23
2019-04-22T03:45:26.622Z,10.16
2019-04-22T03:50:24.934Z,10.14
2019-04-22T03:53:05.725Z,10.14
2019-04-22T03:57:59.545Z,10.08
2019-04-22T04:05:49.626Z,10.01
2019-04-22T04:08:14.772Z,9.95
2019-04-22T04:10:42.995Z,9.88
2019-04-22T04:15:55.742Z,9.76
2019-04-22T04:18:44.602Z,9.73
2019-04-22T04:28:50.822Z,9.67
2019-04-22T04:31:00.314Z,9.67
2019-04-22T04:33:29.168Z,9.68
2019-04-22T04:36:02.802Z,9.68
2019-04-22T04:38:43.476Z,9.69
2019-04-22T04:43:50.225Z,9.70
2019-04-22T04:46:13.847Z,9.69
2019-04-22T04:48:51.159Z,9.72
2019-04-22T04:51:32.971Z,9.74
2019-04-22T04:56:22.276Z,9.83
2019-04-22T04:59:05.484Z,9.87
2019-04-22T05:01:29.930Z,9.92
2019-04-22T05:04:04.704Z,9.98
2019-04-22T05:06:33.125Z,10.02
2019-04-22T05:09:13.440Z,10.07
2019-04-22T05:11:37.223Z,10.11
2019-04-22T05:19:20.702Z,10.21
2019-04-22T05:21:53.100Z,10.27
2019-04-22T05:24:09.558Z,10.31
2019-04-22T05:26:39.677Z,10.39
2019-04-22T05:29:15.048Z,10.45
2019-04-22T05:31:45.960Z,10.53
2019-04-22T05:34:19.478Z,10.61
2019-04-22T05:36:49.459Z,10.72
2019-04-22T05:39:15.815Z,10.81
2019-04-22T05:41:48.620Z,10.92
2019-04-22T05:44:23.043Z,11.00
2019-04-22T05:46:52.793Z,11.11
2019-04-22T05:49:23.785Z,11.21
2019-04-22T05:51:54.980Z,11.29
2019-04-22T05:54:27.378Z,11.40
2019-04-22T05:57:00.563Z,11.53
2019-04-22T05:59:33.760Z,11.64
2019-04-22T06:02:05.157Z,11.77
2019-04-22T06:04:37.243Z,11.91
2019-04-22T06:07:06.464Z,12.07
2019-04-22T06:09:38.898Z,12.45
2019-04-22T06:12:12.184Z,12.59
2019-04-22T06:14:48.001Z,12.71
2019-04-22T06:17:24.701Z,12.85
2019-04-22T06:19:50.858Z,12.99
2019-04-22T06:25:00.948Z,13.28
2019-04-22T06:30:07.982Z,13.57
2019-04-22T06:32:48.605Z,13.71
2019-04-22T06:35:16.694Z,14.06
2019-04-22T06:37:43.430Z,14.21
2019-04-22T06:40:24.831Z,14.35
2019-04-22T06:42:44.122Z,14.48
2019-04-22T06:45:18.797Z,14.63
2019-04-22T06:50:27.200Z,14.90
2019-04-22T06:52:54.598Z,15.03
2019-04-22T06:55:33.314Z,15.15
2019-04-22T06:57:59.898Z,15.31
2019-04-22T07:00:32.123Z,15.45
2019-04-22T07:05:33.029Z,15.74
2019-04-22T07:08:16.080Z,15.90
2019-04-22T07:10:45.401Z,16.06
2019-04-22T07:18:11.564Z,16.55
2019-04-22T07:20:48.034Z,16.72
2019-04-22T07:23:19.513Z,16.87
2019-04-22T07:26:03.173Z,17.03
2019-04-22T07:28:17.611Z,17.18
2019-04-22T07:30:53.410Z,17.35
2019-04-22T07:33:37.906Z,17.55
2019-04-22T07:36:14.662Z,17.71
2019-04-22T07:38:26.791Z,17.85
2019-04-22T07:40:55.758Z,17.98
2019-04-22T07:46:18.719Z,18.30
2019-04-22T07:48:41.957Z,18.48
2019-04-22T07:51:07.508Z,18.62
2019-04-22T07:53:40.611Z,18.81
2019-04-22T07:56:16.778Z,18.97
2019-04-22T07:58:43.246Z,19.11
2019-04-22T08:04:05.474Z,19.43
2019-04-22T08:06:26.775Z,19.59
2019-04-22T08:09:00.304Z,19.77
2019-04-22T08:13:53.063Z,20.09
2019-04-22T08:16:33.922Z,20.23
2019-04-22T08:19:04.156Z,20.36
2019-04-22T08:21:38.479Z,20.49
2019-04-22T08:24:09.615Z,20.68
2019-04-22T08:26:41.358Z,20.86
2019-04-22T08:29:17.210Z,21.02
2019-04-22T08:34:31.012Z,21.36
2019-04-22T08:37:37.409Z,21.54
2019-04-22T08:39:39.159Z,21.63
2019-04-22T08:42:23.525Z,21.74
2019-04-22T08:44:56.767Z,21.86
2019-04-22T08:47:21.009Z,21.99
2019-04-22T08:49:56.893Z,22.19
2019-04-22T08:52:20.812Z,22.36
2019-04-22T08:54:50.544Z,22.50
2019-04-22T08:57:26.057Z,22.65
2019-04-22T08:59:57.519Z,22.78
2019-04-22T09:05:05.060Z,22.99
2019-04-22T09:07:34.558Z,23.08
2019-04-22T09:10:05.251Z,23.21
2019-04-22T09:15:23.110Z,23.36
2019-04-22T09:18:00.447Z,23.42
2019-04-22T09:20:26.507Z,23.49
2019-04-22T09:23:07.561Z,23.56
2019-04-22T09:28:10.488Z,23.69
2019-04-22T09:30:53.327Z,23.75
2019-04-22T09:33:20.834Z,23.86
2019-04-22T09:35:53.107Z,23.97
2019-04-22T09:38:34.695Z,24.06
2019-04-22T09:40:51.801Z,24.18
2019-04-22T09:43:32.036Z,24.26
2019-04-22T09:46:02.133Z,24.31
2019-04-22T09:48:37.809Z,24.37
2019-04-22T09:50:58.887Z,24.44
2019-04-22T09:53:39.640Z,24.53
2019-04-22T09:56:03.839Z,24.62
2019-04-22T09:58:41.632Z,24.66
2019-04-22T10:06:27.854Z,24.84
2019-04-22T10:11:49.466Z,25.00
2019-04-22T10:14:47.985Z,25.02
2019-04-22T10:17:15.536Z,25.10
2019-04-22T10:19:46.806Z,25.29
2019-04-22T10:22:27.986Z,25.38
2019-04-22T10:24:55.417Z,25.50
2019-04-22T10:27:26.906Z,25.57
2019-04-22T10:32:33.447Z,25.77
2019-04-22T10:35:09.235Z,25.88
2019-04-22T10:37:38.735Z,26.01
2019-04-22T10:40:15.825Z,26.06
2019-04-22T10:42:49.622Z,26.08
2019-04-22T10:45:19.839Z,26.09
2019-04-22T10:47:50.178Z,26.24
2019-04-22T10:50:24.705Z,26.38
2019-04-22T10:52:57.328Z,26.50
2019-04-22T10:55:29.551Z,26.63
2019-04-22T10:58:02.260Z,26.77
2019-04-22T11:00:33.632Z,26.79
2019-04-22T11:03:04.278Z,26.90
2019-04-22T11:05:34.976Z,26.97
2019-04-22T11:08:08.064Z,27.00
2019-04-22T11:10:56.357Z,27.10
2019-04-22T11:13:10.900Z,27.11
2019-04-22T11:15:42.896Z,27.08
2019-04-22T11:18:13.701Z,27.16
2019-04-22T11:20:44.040Z,27.14
2019-04-22T11:23:14.481Z,27.06
2019-04-22T11:25:46.060Z,27.05
2019-04-22T11:28:17.975Z,27.11
2019-04-22T11:30:48.388Z,27.34
2019-04-22T11:33:20.443Z,27.52
2019-04-22T11:35:52.096Z,27.61
2019-04-22T11:38:22.720Z,27.73
2019-04-22T11:40:55.525Z,27.87
2019-04-22T11:43:26.178Z,27.95
2019-04-22T11:45:57.528Z,28.24
2019-04-22T11:48:29.207Z,28.48
2019-04-22T11:51:00.107Z,28.66
2019-04-22T11:53:31.011Z,29.09
2019-04-22T11:56:02.705Z,29.51
2019-04-22T11:58:33.323Z,29.92
2019-04-22T12:01:04.755Z,30.33
2019-04-22T12:03:35.762Z,30.48
2019-04-22T12:06:08.260Z,30.85
2019-04-22T12:08:39.688Z,31.25
2019-04-22T12:11:11.600Z,31.63
2019-04-22T12:13:42.241Z,31.92
2019-04-22T12:16:13.595Z,32.16
2019-04-22T12:18:47.116Z,32.30
2019-04-22T12:21:17.432Z,32.55
2019-04-22T12:23:48.671Z,32.80
2019-04-22T12:26:21.010Z,32.82
2019-04-22T12:28:51.170Z,32.79
2019-04-22T12:31:21.803Z,32.75
2019-04-22T12:33:53.066Z,32.66
2019-04-22T12:36:24.609Z,32.58
2019-04-22T12:38:55.665Z,32.83
2019-04-22T12:41:26.020Z,33.22
2019-04-22T12:43:56.340Z,33.64
2019-04-22T12:46:28.061Z,33.93
2019-04-22T12:48:58.334Z,34.29
2019-04-22T12:51:29.229Z,34.48
2019-04-22T12:54:01.118Z,34.54
2019-04-22T12:56:31.643Z,34.64
2019-04-22T12:59:01.712Z,34.84
2019-04-22T13:01:33.103Z,35.05
2019-04-22T13:04:08.981Z,35.25
2019-04-22T13:06:35.654Z,35.57
2019-04-22T13:09:10.509Z,35.81
2019-04-22T13:11:42.702Z,36.02
2019-04-22T13:14:12.923Z,36.39
2019-04-22T13:16:43.144Z,36.85
2019-04-22T13:19:17.044Z,37.05
2019-04-22T13:21:46.532Z,37.27
2019-04-22T13:24:19.853Z,37.46
2019-04-22T13:26:50.577Z,37.81
2019-04-22T13:29:21.281Z,37.96
2019-04-22T13:31:52.930Z,38.11
2019-04-22T13:34:31.611Z,37.81
2019-04-22T13:36:56.536Z,37.93
2019-04-22T13:39:27.213Z,38.06
2019-04-22T13:42:02.073Z,38.48
2019-04-22T13:44:29.291Z,38.76
2019-04-22T13:47:14.746Z,39.03
2019-04-22T13:52:40.883Z,39.59
2019-04-22T13:55:00.325Z,39.99
2019-04-22T13:57:24.957Z,40.05
2019-04-22T13:59:44.689Z,39.95
2019-04-22T14:02:30.655Z,40.24
2019-04-22T14:05:01.139Z,40.54
2019-04-22T14:07:32.721Z,40.91
2019-04-22T14:10:04.343Z,41.23
2019-04-22T14:12:34.933Z,41.64
2019-04-22T14:15:06.287Z,41.78
2019-04-22T14:17:36.859Z,41.69
2019-04-22T14:20:09.035Z,41.77
2019-04-22T14:22:40.729Z,41.88
2019-04-22T14:25:12.633Z,41.87
2019-04-22T14:27:52.388Z,41.81
2019-04-22T14:30:20.910Z,41.72
2019-04-22T14:32:54.188Z,41.69
2019-04-22T14:35:25.063Z,42.20
2019-04-22T14:37:56.427Z,42.29
2019-04-22T14:40:28.740Z,41.97
2019-04-22T14:43:20.978Z,41.86
2019-04-22T14:46:05.494Z,41.70
2019-04-22T14:48:28.596Z,41.53
2019-04-22T14:50:53.174Z,41.54
2019-04-22T14:53:26.007Z,41.33
2019-04-22T14:55:40.399Z,41.26
2019-04-22T14:58:11.035Z,41.46
2019-04-22T15:00:42.381Z,41.39
2019-04-22T15:03:13.504Z,41.66
2019-04-22T15:05:44.213Z,42.12
2019-04-22T15:08:15.077Z,42.10
2019-04-22T15:10:46.172Z,41.68
2019-04-22T15:13:19.305Z,41.74
2019-04-22T15:16:27.834Z,41.54
2019-04-22T15:19:13.417Z,41.59
2019-04-22T15:21:47.173Z,41.61
2019-04-22T15:24:25.147Z,41.93
2019-04-22T15:26:58.522Z,42.25
2019-04-22T15:29:29.591Z,41.95
2019-04-22T15:32:00.104Z,41.91
2019-04-22T15:34:30.758Z,42.33
2019-04-22T15:37:02.337Z,42.55
2019-04-22T15:39:33.983Z,42.64
2019-04-22T15:42:20.786Z,42.64
2019-04-22T15:44:46.122Z,42.28
2019-04-22T15:47:16.523Z,41.96
2019-04-22T15:49:47.835Z,41.63
2019-04-22T15:52:18.936Z,41.75
2019-04-22T15:54:51.805Z,41.69
2019-04-22T15:57:22.526Z,41.64
2019-04-22T16:00:06.791Z,41.57
2019-04-22T16:02:25.713Z,41.86
2019-04-22T16:04:56.890Z,42.26
2019-04-22T16:07:27.726Z,42.60
2019-04-22T16:09:59.582Z,42.76
2019-04-22T16:12:37.726Z,43.07
2019-04-22T16:15:03.661Z,43.14
2019-04-22T16:17:34.777Z,42.89
2019-04-22T16:20:07.004Z,42.75
2019-04-22T16:22:55.089Z,42.79
2019-04-22T16:25:49.555Z,42.42
2019-04-22T16:28:21.504Z,42.35
2019-04-22T16:30:53.265Z,42.18
2019-04-22T16:33:23.716Z,42.12
2019-04-22T16:35:55.074Z,41.88
2019-04-22T16:38:26.768Z,41.41
2019-04-22T16:40:58.738Z,41.17
2019-04-22T16:43:29.136Z,41.49
2019-04-22T16:45:59.398Z,41.11
2019-04-22T16:48:29.866Z,40.61
2019-04-22T16:51:00.363Z,40.58
2019-04-22T16:53:31.489Z,40.68
2019-04-22T16:56:02.688Z,40.67
2019-04-22T16:58:34.612Z,40.45
2019-04-22T17:01:07.325Z,40.36
2019-04-22T17:03:56.504Z,40.52
2019-04-22T17:06:35.201Z,40.41
2019-04-22T17:09:09.178Z,40.03
2019-04-22T17:11:40.208Z,39.62
2019-04-22T17:14:11.292Z,39.31
2019-04-22T17:16:42.096Z,39.26
2019-04-22T17:19:13.146Z,39.10
2019-04-22T17:21:43.816Z,39.07
2019-04-22T17:24:14.095Z,38.72
2019-04-22T17:26:44.351Z,38.47
2019-04-22T17:29:14.784Z,38.29
2019-04-22T17:31:50.964Z,38.17
2019-04-22T17:34:17.835Z,38.05
2019-04-22T17:36:49.162Z,37.93
2019-04-22T17:39:31.485Z,37.79
2019-04-22T17:42:11.192Z,37.24
2019-04-22T17:44:48.647Z,36.77
2019-04-22T17:47:25.898Z,36.49
2019-04-22T17:50:10.620Z,36.08
2019-04-22T17:52:36.576Z,35.51
2019-04-22T17:55:04.571Z,35.06
2019-04-22T17:57:39.350Z,34.44
2019-04-22T18:00:13.123Z,33.73
2019-04-22T18:02:43.474Z,32.61
2019-04-22T18:05:03.744Z,31.33
2019-04-22T18:07:52.590Z,30.28
2019-04-22T18:10:32.895Z,29.34
2019-04-22T18:13:00.069Z,28.52
2019-04-22T18:15:29.677Z,27.69
2019-04-22T18:18:05.308Z,26.92
2019-04-22T18:20:29.274Z,26.20
2019-04-22T18:22:54.774Z,25.57
2019-04-22T18:25:34.062Z,25.05
2019-04-22T18:30:37.403Z,24.19
2019-04-22T18:33:20.695Z,23.83
2019-04-22T18:35:51.564Z,23.45
2019-04-22T18:38:33.255Z,23.43
2019-04-22T18:40:55.980Z,23.00
2019-04-22T18:43:34.773Z,22.69
2019-04-22T18:46:05.363Z,22.43
2019-04-22T18:48:36.098Z,22.18
2019-04-22T18:51:24.629Z,21.93
2019-04-22T18:54:00.144Z,21.76
2019-04-22T18:56:47.762Z,21.57
2019-04-22T18:59:10.485Z,21.37
2019-04-22T19:01:33.614Z,21.19
2019-04-22T19:04:12.799Z,21.03
2019-04-22T19:07:01.795Z,20.91
2019-04-22T19:09:43.361Z,20.82
2019-04-22T19:12:29.227Z,20.69
2019-04-22T19:14:45.440Z,20.54
2019-04-22T19:17:30.018Z,20.47
2019-04-22T19:19:51.010Z,20.35
2019-04-22T19:22:19.516Z,20.25
2019-04-22T19:24:47.353Z,20.14
2019-04-22T19:27:26.909Z,20.03
2019-04-22T19:30:23.985Z,19.91
2019-04-22T19:33:00.365Z,19.86
2019-04-22T19:35:26.934Z,19.73
2019-04-22T19:37:58.852Z,19.63
2019-04-22T19:40:50.544Z,19.54
2019-04-22T19:43:18.702Z,19.47
2019-04-22T19:45:43.004Z,19.37
2019-04-22T19:48:27.178Z,19.29
2019-04-22T19:50:58.517Z,19.20
2019-04-22T19:53:33.632Z,19.10
2019-04-22T19:55:55.609Z,19.01
2019-04-22T19:58:31.102Z,18.94
2019-04-22T20:01:38.639Z,18.88
2019-04-22T20:04:26.211Z,18.82
2019-04-22T20:06:52.288Z,18.90
2019-04-22T20:09:29.922Z,18.75
2019-04-22T20:11:59.686Z,18.65
2019-04-22T20:17:07.597Z,18.47
2019-04-22T20:19:48.048Z,18.26
2019-04-22T20:22:17.591Z,18.09
2019-04-22T20:24:44.880Z,17.97
2019-04-22T20:27:28.592Z,17.86
2019-04-22T20:29:58.162Z,17.74
2019-04-22T20:32:26.286Z,17.64
2019-04-22T20:35:06.023Z,17.51
2019-04-22T20:39:33.545Z,17.51
2019-04-22T20:42:16.496Z,17.32
2019-04-22T20:44:41.030Z,17.29
2019-04-22T20:47:09.311Z,17.28
2019-04-22T20:49:47.497Z,17.29
2019-04-22T20:52:29.227Z,17.26
2019-04-22T20:54:49.458Z,17.26
2019-04-22T20:57:26.280Z,17.24
2019-04-22T20:59:57.601Z,17.19
2019-04-22T21:02:25.239Z,17.16
2019-04-22T21:04:53.989Z,17.13
2019-04-22T21:07:31.386Z,17.09
2019-04-22T21:10:07.641Z,17.03
2019-04-22T21:12:30.299Z,17.00
2019-04-22T21:15:13.591Z,16.97
2019-04-22T21:17:44.682Z,16.93
2019-04-22T21:20:24.210Z,16.84
2019-04-22T21:22:58.225Z,16.80
2019-04-22T21:25:20.615Z,16.73
2019-04-22T21:27:58.262Z,16.72
2019-04-22T21:30:31.925Z,16.69
2019-04-22T21:32:59.463Z,16.65
2019-04-22T21:35:58.070Z,16.60
2019-04-22T21:38:14.577Z,16.56
2019-04-22T21:40:46.127Z,16.49
2019-04-22T21:43:18.493Z,16.45
2019-04-22T21:45:53.055Z,16.37
2019-04-22T21:50:59.550Z,16.31
2019-04-22T21:53:37.083Z,16.26
2019-04-22T21:56:11.832Z,16.24
2019-04-22T21:58:38.155Z,16.19
2019-04-22T22:01:29.130Z,16.17
2019-04-22T22:03:55.723Z,16.11
2019-04-22T22:06:15.148Z,16.03
2019-04-22T22:08:59.779Z,16.00
2019-04-22T22:11:27.776Z,15.98
2019-04-22T22:14:06.613Z,15.94
2019-04-22T22:16:27.390Z,15.89
2019-04-22T22:19:06.741Z,15.83
2019-04-22T22:21:47.958Z,15.78
2019-04-22T22:24:13.104Z,15.72
2019-04-22T22:26:44.841Z,15.66
2019-04-22T22:29:29.374Z,15.59
2019-04-22T22:31:55.562Z,15.54
2019-04-22T22:34:25.023Z,15.47
2019-04-22T22:36:50.778Z,15.41
2019-04-22T22:39:21.818Z,15.40
2019-04-22T22:41:41.804Z,15.40
2019-04-22T22:44:20.921Z,15.41
2019-04-22T22:47:03.413Z,15.40
2019-04-22T22:49:45.191Z,15.38
2019-04-22T22:52:41.345Z,15.38
2019-04-22T22:54:44.468Z,15.35
2019-04-22T22:59:44.160Z,15.25
2019-04-22T23:02:15.668Z,15.17
2019-04-22T23:04:51.193Z,15.12
2019-04-22T23:09:58.603Z,15.00
2019-04-22T23:12:34.590Z,14.96
2019-04-22T23:15:03.273Z,14.89
2019-04-22T23:17:16.219Z,14.86
2019-04-22T23:19:46.607Z,14.81
2019-04-22T23:22:25.282Z,14.77
2019-04-22T23:25:14.402Z,14.74
2019-04-22T23:27:42.083Z,14.69
2019-04-22T23:30:25.233Z,14.65
2019-04-22T23:33:03.566Z,14.62
2019-04-22T23:35:53.240Z,14.55
2019-04-22T23:38:37.575Z,14.51
2019-04-22T23:41:05.422Z,14.46
2019-04-22T23:43:38.932Z,14.43
2019-04-22T23:46:06.966Z,14.37
2019-04-22T23:48:35.252Z,14.33
2019-04-22T23:51:13.800Z,14.30
2019-04-22T23:53:59.820Z,14.22
2019-04-22T23:56:17.473Z,14.19
2019-04-22T23:58:52.417Z,14.13
